Sharon, Massachusetts
Current Conditions -  °F | °C
As of 2:53 PM on Friday 19 Dec 2014 (Local Time) from KOWD Reporting Station
Overcast Overcast  
Wind Chill: 28°   Ceiling: 3500
Heat Index: 35°   Visibility: 10mi
Dew Point: 21°   Wind: 9mph
Humidity: 57%   Direction: 310°NW
Pressure: 29.97"   Gusts: NA
Location:  42.12°N, 71.18°W
Report Text: KOWD 191953Z 31008KT 10SM OVC035 02/M06 A2997 RMK AO2 SLP150 T00171061
Loading
Personal Weather Stations






























Interactive Weather Map New forecast layout! Learn more

10-Day Weather Forecast

Advertisements
Track Severe Weather on mobile